Grizzly Flats, California
Current Conditions -  °F | °C
As of 8:55 PM on Monday 22 Dec 2014 (Local Time) from KPVF Reporting Station
Clear Clear  
Wind Chill: 14°   Ceiling: Unl
Heat Index: 14°   Visibility: 10mi
Dew Point:   Wind: 10mph
Humidity: 59%   Direction: 60°ENE
Pressure: 30.2"   Gusts: NA
Location:  38.63°N, 120.55°W
Report Text: KPVF 230455Z AUTO 06009KT 10SM CLR 14/06 A3020 RMK AO1
Loading
Personal Weather Stations






























Interactive Weather Map New forecast layout! Learn more

10-Day Weather Forecast

Advertisements
Track Severe Weather on mobile